Time;durP1;ratioP1;P1;durP2;ratioP2;P2;SDS_P1;SDS_P2;PMS_P1;PMS_P2;Temp;Humidity;BMP_temperature;BMP_pressure;BME280_temperature;BME280_humidity;BME280_pressure;Samples;Min_cycle;Max_cycle;Signal;HPM_P1;HPM_P2
2023/06/11 00:01:18;;;;;;;;;;;;;;;23.62;45.78;101475.44;5003423;28;4306;-66
2023/06/11 00:03:46;;;;;;;;;;;;;;;23.62;46.04;101490.63;5004146;28;3925;-66
2023/06/11 00:06:17;;;;;;;;;;;;;;;23.62;45.98;101487.00;5006984;28;4119;-66
2023/06/11 00:08:45;;;;;;;;;;;;;;;23.63;45.95;101488.50;5005875;28;4164;-64
2023/06/11 00:11:11;;;;;;;;;;;;;;;23.62;46.12;101495.69;5006746;28;4111;-65
2023/06/11 00:13:37;;;;;;;;;;;;;;;23.61;46.13;101486.25;5006455;28;3964;-65
2023/06/11 00:16:04;;;;;;;;;;;;;;;23.61;46.08;101491.28;5007749;28;4146;-66
2023/06/11 00:18:30;;;;;;;;;;;;;;;23.60;45.93;101484.78;5004617;28;4180;-65
2023/06/11 00:20:58;;;;;;;;;;;;;;;23.60;45.87;101487.66;5003912;28;4304;-65
2023/06/11 00:23:24;;;;;;;;;;;;;;;23.59;45.79;101485.41;5002690;28;4315;-65
2023/06/11 00:25:52;;;;;;;;;;;;;;;23.57;45.67;101486.09;5004725;28;4186;-66
2023/06/11 00:28:19;;;;;;;;;;;;;;;23.58;45.48;101486.84;5006549;28;4095;-66
2023/06/11 00:30:45;;;;;;;;;;;;;;;23.58;45.45;101489.72;5005994;28;4235;-65
2023/06/11 00:33:11;;;;;;;;;;;;;;;23.57;45.27;101497.66;5010391;28;4162;-65
2023/06/11 00:35:38;;;;;;;;;;;;;;;23.57;45.30;101488.97;5005566;28;4227;-65
2023/06/11 00:38:05;;;;;;;;;;;;;;;23.57;45.53;101485.31;5005502;28;4157;-66
2023/06/11 00:40:32;;;;;;;;;;;;;;;23.56;45.28;101489.63;5008215;28;5255;-66
2023/06/11 00:42:58;;;;;;;;;;;;;;;23.56;45.10;101489.63;5009174;28;4223;-66
2023/06/11 00:45:27;;;;;;;;;;;;;;;23.56;44.86;101490.38;4999828;28;4003;-66
2023/06/11 00:47:53;;;;;;;;;;;;;;;23.55;45.07;101485.25;5004785;28;4148;-66
2023/06/11 00:50:20;;;;;;;;;;;;;;;23.56;45.10;101489.63;5003038;28;4015;-66
2023/06/11 00:52:46;;;;;;;;;;;;;;;23.55;45.08;101488.16;5005463;28;4110;-65
2023/06/11 00:55:13;;;;;;;;;;;;;;;23.55;45.01;101491.03;5003357;28;4201;-65
2023/06/11 00:57:42;;;;;;;;;;;;;;;23.55;45.04;101499.72;5012005;28;4055;-64
2023/06/11 01:00:12;;;;;;;;;;;;;;;23.55;44.62;101496.81;5001791;28;4046;-65
2023/06/11 01:02:43;;;;;;;;;;;;;;;23.54;44.96;101498.22;5001537;28;4181;-65
2023/06/11 01:05:11;;;;;;;;;;;;;;;23.55;44.84;101505.50;5009192;28;4694;-66
2023/06/11 01:07:41;;;;;;;;;;;;;;;23.54;44.60;101496.06;5001163;28;4209;-64
2023/06/11 01:10:10;;;;;;;;;;;;;;;23.53;44.58;101502.53;4991671;28;4344;-66
2023/06/11 01:12:38;;;;;;;;;;;;;;;23.53;44.71;101490.97;5008218;28;5139;-66
2023/06/11 01:15:04;;;;;;;;;;;;;;;23.53;44.54;101505.41;5000786;28;5133;-66
2023/06/11 01:17:40;;;;;;;;;;;;;;;23.53;44.88;101502.53;5006150;28;4422;-66
2023/06/11 01:20:12;;;;;;;;;;;;;;;23.53;44.78;101508.31;5004812;28;4134;-66
2023/06/11 01:23:00;;;;;;;;;;;;;;;23.52;44.80;101506.78;4998280;28;3968;-66
2023/06/11 01:25:30;;;;;;;;;;;;;;;23.52;44.70;101501.00;4995416;28;5492;-66
2023/06/11 01:28:10;;;;;;;;;;;;;;;23.51;44.73;101511.09;5010298;28;4503;-66
2023/06/11 01:30:37;;;;;;;;;;;;;;;23.51;44.72;101505.31;4993037;28;4106;-66
2023/06/11 01:33:05;;;;;;;;;;;;;;;23.51;44.81;101511.84;5003332;28;4230;-66
2023/06/11 01:35:36;;;;;;;;;;;;;;;23.51;44.71;101511.09;4993066;28;4114;-66
2023/06/11 01:38:03;;;;;;;;;;;;;;;23.50;44.78;101510.38;5010371;28;4116;-66
2023/06/11 01:40:34;;;;;;;;;;;;;;;23.50;44.86;101509.59;5014938;28;4089;-66
2023/06/11 01:43:02;;;;;;;;;;;;;;;23.49;44.92;101508.13;5012488;28;4184;-66
2023/06/11 01:45:32;;;;;;;;;;;;;;;23.49;44.49;101505.22;5006528;28;4198;-66
2023/06/11 01:47:59;;;;;;;;;;;;;;;23.49;44.54;101511.00;5003257;28;4234;-66
2023/06/11 01:50:27;;;;;;;;;;;;;;;23.49;44.41;101519.69;5003415;28;4177;-66
2023/06/11 01:52:54;;;;;;;;;;;;;;;23.50;44.70;101521.16;5004017;28;4127;-66
2023/06/11 01:55:22;;;;;;;;;;;;;;;23.50;44.60;101509.59;5007727;28;4227;-66
2023/06/11 01:57:48;;;;;;;;;;;;;;;23.48;44.68;101521.84;5003061;28;4132;-66
2023/06/11 02:00:15;;;;;;;;;;;;;;;23.49;44.65;101513.91;5006431;28;4118;-66
2023/06/11 02:02:43;;;;;;;;;;;;;;;23.48;44.63;101516.06;5004600;28;4038;-66
2023/06/11 02:05:11;;;;;;;;;;;;;;;23.48;44.83;101523.97;5006664;28;4555;-66
2023/06/11 02:07:38;;;;;;;;;;;;;;;23.48;44.75;101512.41;4994426;28;4215;-66
2023/06/11 02:10:04;;;;;;;;;;;;;;;23.48;44.52;101512.41;5004424;28;4039;-66
2023/06/11 02:12:31;;;;;;;;;;;;;;;23.48;44.79;101518.19;5003411;28;4255;-66
2023/06/11 02:14:58;;;;;;;;;;;;;;;23.47;44.54;101516.69;5009606;28;4158;-66
2023/06/11 02:17:25;;;;;;;;;;;;;;;23.47;44.57;101522.47;5011708;28;4028;-66
2023/06/11 02:19:51;;;;;;;;;;;;;;;23.46;44.70;101521.75;5003846;28;4144;-66
2023/06/11 02:22:18;;;;;;;;;;;;;;;23.47;44.32;101525.38;5004111;28;4121;-67
2023/06/11 02:24:44;;;;;;;;;;;;;;;23.47;44.55;101522.47;5007893;28;5199;-66
2023/06/11 02:27:10;;;;;;;;;;;;;;;23.46;44.39;101521.00;5009217;28;4106;-66
2023/06/11 02:29:37;;;;;;;;;;;;;;;23.46;44.34;101521.00;5001809;28;4045;-66
2023/06/11 02:32:04;;;;;;;;;;;;;;;23.46;44.37;101526.78;5003796;28;4184;-66
2023/06/11 02:34:30;;;;;;;;;;;;;;;23.45;44.54;101526.00;5005630;28;4247;-66
2023/06/11 02:36:57;;;;;;;;;;;;;;;23.44;44.57;101521.66;5008821;28;4495;-66
2023/06/11 02:39:23;;;;;;;;;;;;;;;23.44;44.34;101526.69;5004681;28;4115;-66
2023/06/11 02:41:50;;;;;;;;;;;;;;;23.44;44.43;101523.81;5002389;28;5108;-66
2023/06/11 02:44:16;;;;;;;;;;;;;;;23.44;44.48;101526.69;5004321;28;4346;-66
2023/06/11 02:46:43;;;;;;;;;;;;;;;23.42;44.31;101522.28;5012138;28;4244;-66
2023/06/11 02:49:09;;;;;;;;;;;;;;;23.42;44.30;101533.84;5010851;28;4254;-66
2023/06/11 02:51:36;;;;;;;;;;;;;;;23.42;44.33;101528.06;5007159;28;4092;-66
2023/06/11 02:54:03;;;;;;;;;;;;;;;23.42;44.27;101527.34;5001354;28;4238;-66
2023/06/11 02:56:30;;;;;;;;;;;;;;;23.41;44.46;101532.38;5005794;28;4981;-66
2023/06/11 02:58:56;;;;;;;;;;;;;;;23.40;44.19;101530.88;5005062;28;4056;-66
2023/06/11 03:01:23;;;;;;;;;;;;;;;23.40;44.29;101533.75;5005887;28;4450;-66
2023/06/11 03:03:49;;;;;;;;;;;;;;;23.40;44.30;101539.53;5011344;28;4467;-66
2023/06/11 03:06:22;;;;;;;;;;;;;;;23.40;44.22;101542.44;5002942;28;4055;-66
2023/06/11 03:08:49;;;;;;;;;;;;;;;23.40;43.95;101536.66;5002537;28;4184;-66
2023/06/11 03:11:15;;;;;;;;;;;;;;;23.39;43.87;101540.97;5007248;28;4095;-66
2023/06/11 03:13:45;;;;;;;;;;;;;;;23.39;43.84;101540.97;5004515;28;4141;-66
2023/06/11 03:16:11;;;;;;;;;;;;;;;23.40;44.08;101547.47;5001387;28;4105;-66
2023/06/11 03:18:38;;;;;;;;;;;;;;;23.39;43.93;101555.41;5001932;28;4138;-66
2023/06/11 03:21:04;;;;;;;;;;;;;;;23.38;43.59;101556.78;5002754;28;4072;-66
2023/06/11 03:23:31;;;;;;;;;;;;;;;23.38;43.73;101553.91;5012473;28;4224;-66
2023/06/11 03:25:59;;;;;;;;;;;;;;;23.38;43.49;101553.91;5012942;28;4175;-66
2023/06/11 03:28:32;;;;;;;;;;;;;;;23.38;43.37;101551.00;5013728;28;4262;-66
2023/06/11 03:30:58;;;;;;;;;;;;;;;23.36;43.84;101553.81;5010383;28;4221;-66
2023/06/11 03:33:25;;;;;;;;;;;;;;;23.38;43.53;101553.16;5011167;28;4577;-66
2023/06/11 03:35:51;;;;;;;;;;;;;;;23.35;43.73;101558.09;4991234;28;4222;-66
2023/06/11 03:38:22;;;;;;;;;;;;;;;23.36;43.51;101556.69;5014016;28;4358;-79
2023/06/11 03:40:49;;;;;;;;;;;;;;;23.35;43.87;101554.47;5004260;28;4046;-66
2023/06/11 03:43:16;;;;;;;;;;;;;;;23.35;43.59;101555.22;5005399;28;4001;-66
2023/06/11 03:45:44;;;;;;;;;;;;;;;23.35;43.62;101548.69;5009104;28;4028;-66
2023/06/11 03:48:10;;;;;;;;;;;;;;;23.34;43.66;101553.75;5003445;28;4047;-66
2023/06/11 03:50:37;;;;;;;;;;;;;;;23.34;43.29;101553.75;5005975;28;4089;-66
2023/06/11 03:53:03;;;;;;;;;;;;;;;23.34;43.41;101556.63;5009363;28;4329;-66
2023/06/11 03:55:30;;;;;;;;;;;;;;;23.34;43.42;101550.84;5006822;28;4036;-66
2023/06/11 03:57:56;;;;;;;;;;;;;;;23.34;43.52;101550.84;5005708;28;4040;-66
2023/06/11 04:00:25;;;;;;;;;;;;;;;23.34;43.60;101556.63;5002156;28;4168;-66
2023/06/11 04:02:53;;;;;;;;;;;;;;;23.33;43.72;101548.59;4999313;28;4039;-66
2023/06/11 04:05:24;;;;;;;;;;;;;;;23.31;43.73;101563.69;5008241;28;4154;-66
2023/06/11 04:07:54;;;;;;;;;;;;;;;23.33;43.90;101554.38;5012091;28;4052;-66
2023/06/11 04:10:22;;;;;;;;;;;;;;;23.33;43.89;101558.00;5013160;28;4145;-66
2023/06/11 04:12:49;;;;;;;;;;;;;;;23.33;43.73;101563.78;5004592;28;4245;-66
2023/06/11 04:15:15;;;;;;;;;;;;;;;23.33;43.95;101566.69;5013052;28;4179;-66
2023/06/11 04:17:43;;;;;;;;;;;;;;;23.33;43.77;101563.06;5012674;28;5243;-66
2023/06/11 04:20:09;;;;;;;;;;;;;;;23.33;43.55;101568.84;5014170;28;4058;-66
2023/06/11 04:22:36;;;;;;;;;;;;;;;23.31;43.63;101569.47;5004466;28;4396;-66
2023/06/11 04:25:02;;;;;;;;;;;;;;;23.31;43.69;101569.47;5008404;28;4221;-66
2023/06/11 04:27:33;;;;;;;;;;;;;;;23.32;43.85;101576.75;5004545;28;4115;-66
2023/06/11 04:30:03;;;;;;;;;;;;;;;23.31;43.74;101569.47;5003436;28;4055;-66
2023/06/11 04:32:34;;;;;;;;;;;;;;;23.30;43.77;101570.16;5006865;28;4228;-65
2023/06/11 04:35:02;;;;;;;;;;;;;;;23.30;43.70;101570.16;5007666;28;4223;-66
2023/06/11 04:37:30;;;;;;;;;;;;;;;23.30;43.97;101573.78;5000371;28;4023;-66
2023/06/11 04:40:00;;;;;;;;;;;;;;;22.71;42.77;101579.66;4992424;28;4061;-67
2023/06/11 04:42:27;;;;;;;;;;;;;;;21.75;43.10;101581.38;5003477;28;4025;-68
2023/06/11 04:44:56;;;;;;;;;;;;;;;21.78;43.39;101577.19;5005853;28;4229;-68
2023/06/11 04:47:24;;;;;;;;;;;;;;;21.57;43.17;101586.91;5006689;28;4342;-68
2023/06/11 04:49:51;;;;;;;;;;;;;;;21.88;43.08;101579.88;5004154;28;4080;-68
2023/06/11 04:52:18;;;;;;;;;;;;;;;21.62;43.14;101570.56;5010794;28;4319;-68
2023/06/11 04:54:45;;;;;;;;;;;;;;;21.67;42.94;101573.03;5003226;28;4024;-67
2023/06/11 04:57:13;;;;;;;;;;;;;;;21.59;42.74;101575.50;5018835;28;4247;-68
2023/06/11 04:59:39;;;;;;;;;;;;;;;21.34;42.86;101574.16;5014782;28;4162;-68
2023/06/11 05:02:06;;;;;;;;;;;;;;;21.48;42.72;101573.47;4999038;28;4050;-68
2023/06/11 05:04:33;;;;;;;;;;;;;;;21.56;42.40;101579.66;5005001;28;4210;-68
2023/06/11 05:07:00;;;;;;;;;;;;;;;21.28;42.93;101576.72;5003893;28;4525;-68
2023/06/11 05:09:27;;;;;;;;;;;;;;;21.38;42.95;101582.28;5012041;28;4304;-68
2023/06/11 05:11:54;;;;;;;;;;;;;;;21.32;43.06;101579.06;5004756;28;5400;-68
2023/06/11 05:14:21;;;;;;;;;;;;;;;21.15;43.33;101582.47;5003038;28;4120;-67
2023/06/11 05:16:50;;;;;;;;;;;;;;;21.32;43.38;101574.06;5006126;28;4197;-68
2023/06/11 05:19:17;;;;;;;;;;;;;;;21.60;43.37;101573.34;5000135;28;4140;-68
2023/06/11 05:21:43;;;;;;;;;;;;;;;21.41;43.18;101580.28;5019375;28;4277;-68
2023/06/11 05:24:18;;;;;;;;;;;;;;;21.53;42.94;101572.28;5007135;28;4110;-68
2023/06/11 05:26:47;;;;;;;;;;;;;;;21.59;43.09;101580.50;5007693;28;4189;-68
2023/06/11 05:29:14;;;;;;;;;;;;;;;21.42;43.32;101570.28;5011040;28;4134;-68
2023/06/11 05:31:40;;;;;;;;;;;;;;;21.52;42.65;101579.44;4999008;28;4032;-68
2023/06/11 05:34:09;;;;;;;;;;;;;;;21.58;42.54;101571.13;4999107;28;4218;-68
2023/06/11 05:36:36;;;;;;;;;;;;;;;21.46;42.24;101579.09;5003190;28;3973;-68
2023/06/11 05:39:03;;;;;;;;;;;;;;;21.49;42.31;101569.19;5002583;28;4054;-68
2023/06/11 05:41:30;;;;;;;;;;;;;;;21.50;42.45;101571.44;5004255;28;4170;-68
2023/06/11 05:43:57;;;;;;;;;;;;;;;21.60;42.19;101573.34;5010973;28;4204;-68
2023/06/11 05:46:28;;;;;;;;;;;;;;;21.63;42.19;101574.97;5008928;28;4059;-68
2023/06/11 05:48:55;;;;;;;;;;;;;;;21.62;41.95;101577.09;5011229;28;4756;-68
2023/06/11 05:51:22;;;;;;;;;;;;;;;21.54;42.31;101576.66;5002504;28;4241;-68
2023/06/11 05:53:48;;;;;;;;;;;;;;;21.61;41.76;101578.47;5002554;28;4083;-68
2023/06/11 05:56:15;;;;;;;;;;;;;;;21.66;41.79;101580.19;5014559;28;4242;-68
2023/06/11 05:58:42;;;;;;;;;;;;;;;21.53;41.88;101592.44;5006538;28;4077;-68
2023/06/11 06:01:12;;;;;;;;;;;;;;;21.58;41.83;101585.53;4997506;28;4986;-68
2023/06/11 06:03:40;;;;;;;;;;;;;;;21.57;41.57;101586.91;5007791;28;4193;-68
2023/06/11 06:06:08;;;;;;;;;;;;;;;21.69;41.67;101590.44;5010187;28;4223;-68
2023/06/11 06:08:35;;;;;;;;;;;;;;;21.73;41.36;101587.75;4998304;28;4169;-68
2023/06/11 06:11:02;;;;;;;;;;;;;;;21.55;41.74;101595.44;5004000;28;4004;-68
2023/06/11 06:13:29;;;;;;;;;;;;;;;21.68;41.22;101588.94;5004944;28;4203;-68
2023/06/11 06:15:58;;;;;;;;;;;;;;;21.70;40.95;101586.16;5005307;28;4178;-68
2023/06/11 06:18:28;;;;;;;;;;;;;;;21.80;40.96;101585.19;5016870;28;4109;-72
2023/06/11 06:20:55;;;;;;;;;;;;;;;21.99;40.41;101584.00;4988320;28;3981;-66
2023/06/11 06:23:21;;;;;;;;;;;;;;;22.11;39.77;101584.63;5001562;28;4193;-66
2023/06/11 06:25:55;;;;;;;;;;;;;;;22.02;39.79;101588.50;5002425;28;4133;-72
2023/06/11 06:28:21;;;;;;;;;;;;;;;22.01;39.81;101593.50;5001986;28;5506;-65
2023/06/11 06:30:49;;;;;;;;;;;;;;;22.00;39.91;101585.50;5005015;28;4303;-65
2023/06/11 06:33:17;;;;;;;;;;;;;;;21.96;40.12;101586.03;5002839;28;4164;-65
2023/06/11 06:35:43;;;;;;;;;;;;;;;21.80;40.60;101585.94;4999076;28;4170;-65
2023/06/11 06:38:10;;;;;;;;;;;;;;;21.89;40.95;101587.13;4997617;28;4229;-64
2023/06/11 06:40:40;;;;;;;;;;;;;;;21.97;41.08;101587.53;5009473;28;4118;-65
2023/06/11 06:43:06;;;;;;;;;;;;;;;21.99;41.12;101581.88;4994733;28;4190;-65
2023/06/11 06:45:34;;;;;;;;;;;;;;;22.05;41.01;101587.94;4997675;28;3964;-65
2023/06/11 06:48:09;;;;;;;;;;;;;;;22.07;41.38;101588.06;4999481;28;4305;-65
2023/06/11 06:50:36;;;;;;;;;;;;;;;22.06;41.40;101592.34;5005408;28;4158;-65
2023/06/11 06:53:03;;;;;;;;;;;;;;;22.07;41.04;101585.16;5001676;28;4229;-65
2023/06/11 06:55:29;;;;;;;;;;;;;;;21.98;40.56;101591.16;5010425;28;3956;-64
2023/06/11 06:58:01;;;;;;;;;;;;;;;21.92;41.14;101585.81;5006536;28;4068;-65
2023/06/11 07:00:28;;;;;;;;;;;;;;;21.96;40.43;101586.03;5015690;28;4210;-64
2023/06/11 07:02:55;;;;;;;;;;;;;;;21.97;40.56;101587.53;5008005;28;4330;-63
2023/06/11 07:05:22;;;;;;;;;;;;;;;22.08;40.60;101585.91;5009118;28;4153;-65
2023/06/11 07:07:49;;;;;;;;;;;;;;;22.14;41.23;101589.84;5005162;28;4286;-65
2023/06/11 07:10:17;;;;;;;;;;;;;;;22.16;41.07;101592.84;5001614;28;4065;-65
2023/06/11 07:12:43;;;;;;;;;;;;;;;22.20;40.82;101594.44;5003581;28;4167;-65
2023/06/11 07:15:10;;;;;;;;;;;;;;;22.21;40.78;101582.28;4997316;28;4050;-65
2023/06/11 07:17:37;;;;;;;;;;;;;;;22.22;40.80;101583.03;5010690;28;4041;-65
2023/06/11 07:20:04;;;;;;;;;;;;;;;22.25;40.68;101593.28;5003427;28;4940;-64
2023/06/11 07:22:31;;;;;;;;;;;;;;;22.29;40.78;101588.47;5001641;28;4132;-65
2023/06/11 07:24:58;;;;;;;;;;;;;;;22.26;40.96;101594.78;5000772;28;4042;-65
2023/06/11 07:27:25;;;;;;;;;;;;;;;22.26;40.97;101595.50;5005352;28;4138;-64
2023/06/11 07:29:52;;;;;;;;;;;;;;;22.30;41.13;101592.09;4997183;28;4064;-65
2023/06/11 07:32:18;;;;;;;;;;;;;;;22.05;41.00;101590.09;4996225;28;4134;-65
2023/06/11 07:34:45;;;;;;;;;;;;;;;22.19;40.81;101590.81;5003915;28;5179;-64
2023/06/11 07:37:11;;;;;;;;;;;;;;;22.27;41.21;101590.50;4997084;28;4133;-65
2023/06/11 07:39:37;;;;;;;;;;;;;;;22.36;41.34;101601.06;4999089;28;4053;-65
2023/06/11 07:42:05;;;;;;;;;;;;;;;22.39;41.73;101596.88;5003437;28;4179;-64
2023/06/11 07:44:31;;;;;;;;;;;;;;;22.40;41.70;101592.59;4997862;28;4210;-61
2023/06/11 07:46:58;;;;;;;;;;;;;;;22.41;41.03;101581.81;5001760;28;4062;-61
2023/06/11 07:49:24;;;;;;;;;;;;;;;22.39;41.78;101594.00;4994619;28;4148;-60
2023/06/11 07:51:51;;;;;;;;;;;;;;;22.47;41.64;101593.63;5000600;28;4180;-59
2023/06/11 07:54:18;;;;;;;;;;;;;;;22.46;41.39;101592.16;4999010;28;4065;-60
2023/06/11 07:56:46;;;;;;;;;;;;;;;22.37;40.84;101585.97;4999436;28;4196;-60
2023/06/11 07:59:13;;;;;;;;;;;;;;;22.44;41.47;101592.78;4995217;28;4061;-60
2023/06/11 08:01:40;;;;;;;;;;;;;;;22.43;41.55;101591.31;4999066;28;4063;-61
2023/06/11 08:04:06;;;;;;;;;;;;;;;22.28;40.97;101589.09;4994722;28;4170;-60
2023/06/11 08:06:33;;;;;;;;;;;;;;;22.35;40.92;101590.91;5001743;28;4023;-60
2023/06/11 08:08:59;;;;;;;;;;;;;;;22.37;42.01;101588.13;4998753;28;4187;-61
2023/06/11 08:11:26;;;;;;;;;;;;;;;22.39;41.57;101576.69;5007066;28;4055;-60
2023/06/11 08:13:52;;;;;;;;;;;;;;;22.37;40.62;101582.34;5008181;28;4378;-61
2023/06/11 08:16:19;;;;;;;;;;;;;;;22.10;40.67;101589.63;5002140;28;4111;-61
2023/06/11 08:18:45;;;;;;;;;;;;;;;22.01;40.64;101584.84;5007052;28;4150;-60
2023/06/11 08:21:12;;;;;;;;;;;;;;;22.32;41.04;101580.66;5001753;28;4455;-61
2023/06/11 08:23:39;;;;;;;;;;;;;;;22.25;40.29;101588.25;5004577;28;4020;-61
2023/06/11 08:26:06;;;;;;;;;;;;;;;22.32;40.40;101586.44;5004033;28;4057;-61
2023/06/11 08:28:32;;;;;;;;;;;;;;;22.47;40.39;101574.19;5001249;28;4177;-60
2023/06/11 08:30:59;;;;;;;;;;;;;;;22.54;40.98;101587.53;5003574;28;4284;-61
2023/06/11 08:33:25;;;;;;;;;;;;;;;22.43;40.62;101588.44;5005843;28;4085;-61
2023/06/11 08:35:52;;;;;;;;;;;;;;;22.57;41.11;101589.13;5004718;28;4153;-61
2023/06/11 08:38:18;;;;;;;;;;;;;;;22.58;41.43;101587.72;5002649;28;5086;-61
2023/06/11 08:40:45;;;;;;;;;;;;;;;22.61;41.49;101574.16;5012385;28;3996;-61
2023/06/11 08:43:11;;;;;;;;;;;;;;;22.62;41.67;101583.53;5009350;28;4075;-60
2023/06/11 08:45:38;;;;;;;;;;;;;;;22.69;41.84;101582.44;5012231;28;4164;-59
2023/06/11 08:48:05;;;;;;;;;;;;;;;22.71;41.54;101574.63;5003231;28;4172;-61
2023/06/11 08:50:32;;;;;;;;;;;;;;;22.76;41.70;101587.13;5005682;28;4123;-60
2023/06/11 08:53:01;;;;;;;;;;;;;;;22.78;42.08;101572.78;5002681;28;4139;-61
2023/06/11 08:55:28;;;;;;;;;;;;;;;22.71;41.49;101582.53;5007001;28;4012;-61
2023/06/11 08:57:54;;;;;;;;;;;;;;;22.81;41.48;101568.59;5010081;28;4228;-61
2023/06/11 09:00:21;;;;;;;;;;;;;;;22.81;41.87;101565.69;5004490;28;4210;-61
2023/06/11 09:02:47;;;;;;;;;;;;;;;22.82;41.54;101564.31;5009196;28;4348;-61
2023/06/11 09:05:14;;;;;;;;;;;;;;;22.83;41.84;101568.69;5007718;28;4332;-61
2023/06/11 09:07:52;;;;;;;;;;;;;;;22.83;41.76;101562.91;5008517;28;4009;-61
2023/06/11 09:10:19;;;;;;;;;;;;;;;22.84;41.80;101558.63;5008223;28;4073;-61
2023/06/11 09:12:45;;;;;;;;;;;;;;;22.83;41.81;101562.91;5000419;28;4066;-61
2023/06/11 09:15:12;;;;;;;;;;;;;;;22.84;41.99;101567.31;5002232;28;4252;-60
2023/06/11 09:17:39;;;;;;;;;;;;;;;22.84;42.08;101554.97;5001606;28;4162;-61
2023/06/11 09:20:09;;;;;;;;;;;;;;;22.84;42.20;101558.63;5003801;28;4523;-61
2023/06/11 09:22:37;;;;;;;;;;;;;;;22.85;42.17;101554.34;5004113;28;4352;-61
2023/06/11 09:25:08;;;;;;;;;;;;;;;22.86;42.14;101555.06;5004041;28;4158;-61
2023/06/11 09:27:38;;;;;;;;;;;;;;;22.86;42.27;101546.41;4999484;28;4150;-60
2023/06/11 09:30:12;;;;;;;;;;;;;;;22.87;42.66;101556.59;4998128;28;4161;-61
2023/06/11 09:32:39;;;;;;;;;;;;;;;22.88;42.46;101558.81;5000536;28;4053;-60
2023/06/11 09:35:07;;;;;;;;;;;;;;;22.88;42.47;101558.06;5006806;28;5164;-61
2023/06/11 09:37:40;;;;;;;;;;;;;;;22.82;43.25;101555.66;5003412;28;4127;-61
2023/06/11 09:40:10;;;;;;;;;;;;;;;22.88;41.83;101550.13;5007213;28;4122;-60
2023/06/11 09:42:37;;;;;;;;;;;;;;;22.95;42.21;101551.94;5006833;28;3985;-68
2023/06/11 09:45:05;;;;;;;;;;;;;;;23.05;41.68;101548.81;5009968;28;4151;-68
2023/06/11 09:47:32;;;;;;;;;;;;;;;23.06;40.63;101549.53;5001919;28;4144;-72
2023/06/11 09:49:58;;;;;;;;;;;;;;;23.08;40.28;101552.53;5010840;28;4090;-74
2023/06/11 09:52:28;;;;;;;;;;;;;;;23.13;40.40;101542.63;5004252;28;4045;-73
2023/06/11 09:54:54;;;;;;;;;;;;;;;23.11;41.27;101549.09;5017126;28;4158;-75
2023/06/11 09:57:21;;;;;;;;;;;;;;;23.12;41.05;101546.94;5006110;28;3887;-75
2023/06/11 09:59:47;;;;;;;;;;;;;;;23.03;41.10;101545.06;5007600;28;4055;-76
2023/06/11 10:02:14;;;;;;;;;;;;;;;23.10;41.24;101538.19;5006112;28;4021;-75
2023/06/11 10:04:40;;;;;;;;;;;;;;;23.11;40.94;101551.22;5007977;28;4068;-75
2023/06/11 10:07:07;;;;;;;;;;;;;;;23.14;40.98;101550.66;5007087;28;4070;-76
2023/06/11 10:09:33;;;;;;;;;;;;;;;23.13;40.90;101554.19;5003106;28;4171;-74
2023/06/11 10:12:00;;;;;;;;;;;;;;;23.12;41.28;101541.91;5005245;28;3900;-74
2023/06/11 10:14:26;;;;;;;;;;;;;;;23.16;41.00;101541.34;5001934;28;4139;-75
2023/06/11 10:16:54;;;;;;;;;;;;;;;23.16;40.93;101544.97;5005152;28;4059;-75
2023/06/11 10:19:21;;;;;;;;;;;;;;;23.24;39.90;101538.81;5008170;28;4282;-75
2023/06/11 10:21:51;;;;;;;;;;;;;;;23.23;40.41;101534.44;5006722;28;4196;-75
2023/06/11 10:24:21;;;;;;;;;;;;;;;23.16;40.33;101539.19;4999871;28;4089;-75
2023/06/11 10:27:10;;;;;;;;;;;;;;;23.19;40.85;101545.81;5006727;28;4020;-74
2023/06/11 10:29:37;;;;;;;;;;;;;;;23.20;41.22;101541.50;5003858;28;4184;-74
2023/06/11 10:32:13;;;;;;;;;;;;;;;23.21;40.99;101531.47;4998649;28;3965;-75
2023/06/11 10:34:40;;;;;;;;;;;;;;;23.21;41.33;101526.44;5007665;28;4111;-75
2023/06/11 10:37:08;;;;;;;;;;;;;;;23.21;41.12;101537.25;5004405;28;5069;-75
2023/06/11 10:39:35;;;;;;;;;;;;;;;23.21;41.24;101537.25;5002025;28;4092;-75
2023/06/11 10:42:02;;;;;;;;;;;;;;;23.19;41.23;101534.25;5001312;28;4128;-75
2023/06/11 10:44:29;;;;;;;;;;;;;;;23.23;41.03;101534.44;5001502;28;4031;-75
2023/06/11 10:46:56;;;;;;;;;;;;;;;23.24;41.15;101535.94;5002914;28;4055;-75
2023/06/11 10:49:25;;;;;;;;;;;;;;;23.26;40.95;101529.50;5004024;28;4151;-75
2023/06/11 10:51:51;;;;;;;;;;;;;;;23.25;41.22;101528.75;5007743;28;3906;-74
2023/06/11 10:54:25;;;;;;;;;;;;;;;23.23;40.80;101522.88;5001296;28;4252;-74
2023/06/11 10:56:52;;;;;;;;;;;;;;;23.20;41.10;101515.50;5003386;28;4054;-74
2023/06/11 10:59:18;;;;;;;;;;;;;;;23.19;41.11;101534.25;4999864;28;4199;-74
2023/06/11 11:01:45;;;;;;;;;;;;;;;23.18;41.42;101536.41;5004433;28;4412;-74
2023/06/11 11:04:11;;;;;;;;;;;;;;;23.21;41.53;101529.31;5006192;28;4262;-74
2023/06/11 11:06:39;;;;;;;;;;;;;;;23.18;41.50;101532.75;5010556;28;4139;-74
2023/06/11 11:09:05;;;;;;;;;;;;;;;23.19;41.95;101529.22;5006484;28;4188;-73
2023/06/11 11:11:32;;;;;;;;;;;;;;;23.17;42.05;101520.47;5006550;28;4068;-73
2023/06/11 11:14:03;;;;;;;;;;;;;;;23.16;41.94;101526.91;5009310;28;4339;-73
2023/06/11 11:16:30;;;;;;;;;;;;;;;23.14;42.54;101518.16;5002254;28;4061;-72
2023/06/11 11:18:56;;;;;;;;;;;;;;;23.14;42.74;101523.94;5004853;28;4157;-73
2023/06/11 11:21:26;;;;;;;;;;;;;;;23.15;42.79;101516.75;5001945;28;4064;-73
2023/06/11 11:23:53;;;;;;;;;;;;;;;23.16;42.69;101524.03;5000423;28;4032;-73
2023/06/11 11:26:19;;;;;;;;;;;;;;;23.14;42.72;101515.25;5003513;28;4157;-73
2023/06/11 11:28:46;;;;;;;;;;;;;;;23.17;42.70;101519.72;4999761;28;4167;-74
2023/06/11 11:31:16;;;;;;;;;;;;;;;23.19;43.07;101511.16;5002555;28;4144;-74
2023/06/11 11:33:42;;;;;;;;;;;;;;;23.20;42.99;101513.38;5009030;28;3935;-73
2023/06/11 11:36:08;;;;;;;;;;;;;;;23.21;43.07;101503.31;5003009;28;4143;-74
2023/06/11 11:38:35;;;;;;;;;;;;;;;23.21;43.20;101502.56;5000875;28;4214;-74
2023/06/11 11:41:02;;;;;;;;;;;;;;;23.23;42.95;101490.34;5002100;28;4086;-72
2023/06/11 11:43:41;;;;;;;;;;;;;;;23.18;43.29;101480.75;5006369;28;4143;-73
2023/06/11 11:46:14;;;;;;;;;;;;;;;23.20;43.44;101489.50;5007155;28;4000;-73
2023/06/11 11:48:42;;;;;;;;;;;;;;;23.19;43.28;101488.78;5006191;28;4134;-70
2023/06/11 11:51:09;;;;;;;;;;;;;;;23.26;43.60;101486.91;4998961;28;4267;-70
2023/06/11 11:53:35;;;;;;;;;;;;;;;23.28;43.40;101477.59;5011049;28;4082;-71
2023/06/11 11:56:02;;;;;;;;;;;;;;;23.29;43.52;101474.03;5002525;28;3949;-69
2023/06/11 11:58:37;;;;;;;;;;;;;;;23.36;43.61;101475.78;5012745;28;4086;-73
2023/06/11 12:01:03;;;;;;;;;;;;;;;23.40;43.56;101475.97;5009258;28;4153;-71
2023/06/11 12:03:30;;;;;;;;;;;;;;;23.44;43.61;101471.78;5014995;28;4136;-72
2023/06/11 12:05:58;;;;;;;;;;;;;;;23.48;43.48;101472.69;5015469;28;4046;-72
2023/06/11 12:08:25;;;;;;;;;;;;;;;23.54;43.38;101475.09;5006385;28;4054;-72
2023/06/11 12:10:51;;;;;;;;;;;;;;;23.52;43.68;101472.84;5011791;28;4244;-72
2023/06/11 12:13:18;;;;;;;;;;;;;;;23.54;43.73;101469.31;5006014;28;4189;-72
2023/06/11 12:15:44;;;;;;;;;;;;;;;23.54;43.60;101470.03;5013472;28;4565;-73
2023/06/11 12:18:11;;;;;;;;;;;;;;;23.59;43.67;101471.72;5017972;28;3982;-72
2023/06/11 12:20:37;;;;;;;;;;;;;;;23.59;43.71;101465.94;4995689;28;7240;-75
2023/06/11 12:23:04;;;;;;;;;;;;;;;23.68;43.71;101469.91;5007844;28;7085;-71
2023/06/11 12:25:31;;;;;;;;;;;;;;;23.90;43.49;101470.13;5011660;28;4393;-71
2023/06/11 12:28:01;;;;;;;;;;;;;;;23.88;43.29;101466.41;5006862;28;5063;-72
2023/06/11 12:30:29;;;;;;;;;;;;;;;23.85;43.38;101467.75;5010156;28;4010;-72
2023/06/11 12:32:56;;;;;;;;;;;;;;;23.87;43.34;101456.25;5008626;28;4055;-75
2023/06/11 12:35:23;;;;;;;;;;;;;;;23.89;43.51;101462.09;5007365;28;4063;-74
2023/06/11 12:37:50;;;;;;;;;;;;;;;23.78;43.84;101455.91;5009861;28;4076;-72
2023/06/11 12:40:17;;;;;;;;;;;;;;;23.83;43.79;101457.56;5009876;28;4356;-76
2023/06/11 12:42:43;;;;;;;;;;;;;;;23.87;44.04;101453.34;5010603;28;4579;-74
2023/06/11 12:45:10;;;;;;;;;;;;;;;23.86;43.76;101454.75;5011703;28;4494;-74
2023/06/11 12:47:36;;;;;;;;;;;;;;;23.87;44.02;101453.34;5006739;28;4390;-76
2023/06/11 12:50:03;;;;;;;;;;;;;;;24.02;43.95;101458.31;5017409;28;4502;-79